Time;durP1;ratioP1;P1;durP2;ratioP2;P2;SDS_P1;SDS_P2;PMS_P1;PMS_P2;Temp;Humidity;BMP_temperature;BMP_pressure;BME280_temperature;BME280_humidity;BME280_pressure;Samples;Min_cycle;Max_cycle;Signal;HPM_P1;HPM_P2
2023/04/02 00:00:35;;;;;;;9.30;6.28;;;7.20;99.90;;;;;;4936678;29;19923;-92
2023/04/02 00:03:09;;;;;;;10.55;7.28;;;7.10;99.90;;;;;;4905217;29;20126;-92
2023/04/02 00:05:49;;;;;;;8.40;6.25;;;7.10;99.90;;;;;;4921202;29;20074;-93
2023/04/02 00:08:39;;;;;;;10.43;6.85;;;7.10;99.90;;;;;;4921515;29;20055;-95
2023/04/02 00:11:07;;;;;;;7.95;5.30;;;7.10;99.90;;;;;;4921055;29;20048;-93
2023/04/02 00:13:45;;;;;;;10.48;6.20;;;7.10;99.90;;;;;;4921370;29;20036;-93
2023/04/02 00:16:22;;;;;;;9.15;5.90;;;7.10;99.90;;;;;;4921495;29;20049;-93
2023/04/02 00:18:53;;;;;;;9.20;5.95;;;7.10;99.90;;;;;;4905763;29;20051;-93
2023/04/02 00:21:34;;;;;;;8.73;5.85;;;7.00;99.90;;;;;;4904727;29;20099;-93
2023/04/02 00:24:16;;;;;;;10.63;5.63;;;7.10;99.90;;;;;;4936141;29;20110;-93
2023/04/02 00:26:45;;;;;;;7.72;5.72;;;7.00;99.90;;;;;;4920992;29;20046;-94
2023/04/02 00:29:19;;;;;;;7.82;5.57;;;7.00;99.90;;;;;;4921419;29;20130;-93
2023/04/02 00:31:53;;;;;;;8.75;6.05;;;7.00;99.90;;;;;;4912326;29;20054;-94
2023/04/02 00:34:37;;;;;;;9.65;5.57;;;7.00;99.90;;;;;;4940532;29;20496;-93
2023/04/02 00:37:05;;;;;;;6.78;5.07;;;7.00;99.90;;;;;;4926870;28;20529;-94
2023/04/02 00:39:40;;;;;;;7.03;4.57;;;7.00;99.90;;;;;;4942972;28;20047;-93
2023/04/02 00:42:11;;;;;;;7.80;4.93;;;7.00;99.90;;;;;;4942686;28;20046;-93
2023/04/02 00:44:44;;;;;;;7.18;5.10;;;7.00;99.90;;;;;;4958669;28;20066;-93
2023/04/02 00:47:25;;;;;;;6.63;4.68;;;7.00;99.90;;;;;;4974073;28;20053;-93
2023/04/02 00:50:17;;;;;;;10.27;5.72;;;7.00;99.90;;;;;;4943401;28;20046;-93
2023/04/02 00:52:50;;;;;;;11.70;4.93;;;7.00;99.90;;;;;;4958675;28;20114;-92
2023/04/02 00:55:34;;;;;;;7.88;5.60;;;7.00;99.90;;;;;;4959127;28;20455;-92
2023/04/02 00:58:03;;;;;;;7.95;4.93;;;7.00;99.90;;;;;;4957997;28;20145;-92
2023/04/02 01:00:35;;;;;;;7.70;5.03;;;6.90;99.90;;;;;;4958152;28;20053;-95
2023/04/02 01:03:31;;;;;;;7.40;5.13;;;6.90;99.90;;;;;;4973838;28;20101;-93
2023/04/02 01:06:09;;;;;;;8.48;5.40;;;6.90;99.90;;;;;;4974874;28;20047;-93
2023/04/02 01:08:53;;;;;;;8.68;5.85;;;6.90;99.90;;;;;;4974582;28;20406;-93
2023/04/02 01:11:46;;;;;;;6.97;5.50;;;6.90;99.90;;;;;;4974409;28;20042;-94
2023/04/02 01:14:42;;;;;;;8.15;5.38;;;6.80;99.90;;;;;;4958474;28;20042;-93
2023/04/02 01:17:20;;;;;;;8.65;5.68;;;6.80;99.90;;;;;;4973564;28;20510;-92
2023/04/02 01:20:06;;;;;;;8.40;5.47;;;6.80;99.90;;;;;;4974953;28;20042;-95
2023/04/02 01:22:57;;;;;;;8.02;5.10;;;6.80;99.90;;;;;;4974163;28;20047;-94
2023/04/02 01:25:50;;;;;;;10.25;5.40;;;6.80;99.90;;;;;;4958147;28;20047;-93
2023/04/02 01:28:28;;;;;;;8.55;5.75;;;6.80;99.90;;;;;;4958221;28;20054;-94
2023/04/02 01:30:57;;;;;;;7.40;5.05;;;6.80;99.90;;;;;;4958714;28;20059;-93
2023/04/02 01:33:34;;;;;;;7.57;4.10;;;6.80;99.90;;;;;;4975629;28;20047;-93
2023/04/02 01:36:09;;;;;;;5.95;4.25;;;6.70;99.90;;;;;;4962790;28;20046;-94
2023/04/02 01:38:52;;;;;;;6.53;4.10;;;6.70;99.90;;;;;;4945652;28;20047;-94
2023/04/02 01:41:29;;;;;;;7.50;5.03;;;6.70;99.90;;;;;;4962657;28;20042;-93
2023/04/02 01:44:11;;;;;;;7.57;4.95;;;6.70;99.90;;;;;;4969538;28;20089;-94
2023/04/02 01:46:43;;;;;;;7.55;4.63;;;6.70;99.90;;;;;;4961888;28;20050;-94
2023/04/02 01:49:17;;;;;;;7.50;5.00;;;6.60;99.90;;;;;;4946344;28;20046;-94
2023/04/02 01:51:52;;;;;;;8.07;4.70;;;6.60;99.90;;;;;;4962023;28;20085;-92
2023/04/02 01:54:21;;;;;;;8.23;5.32;;;6.60;99.90;;;;;;4942479;29;20066;-92
2023/04/02 01:56:50;;;;;;;8.93;5.88;;;6.50;99.90;;;;;;4942578;29;20070;-93
2023/04/02 01:59:21;;;;;;;8.70;5.97;;;6.50;99.90;;;;;;4926418;29;20043;-93
2023/04/02 02:02:00;;;;;;;9.95;6.25;;;6.50;99.90;;;;;;4927195;29;20047;-93
2023/04/02 02:04:30;;;;;;;10.18;5.32;;;6.50;99.90;;;;;;4926664;29;20094;-94
2023/04/02 02:07:04;;;;;;;8.95;5.60;;;6.50;99.90;;;;;;4927398;29;20043;-93
2023/04/02 02:09:39;;;;;;;6.97;4.82;;;6.50;99.90;;;;;;4945565;29;20200;-93
2023/04/02 02:12:08;;;;;;;7.55;5.13;;;6.50;99.90;;;;;;4928693;29;20407;-94
2023/04/02 02:14:35;;;;;;;8.40;5.25;;;6.50;99.90;;;;;;4943180;29;20055;-94
2023/04/02 02:17:12;;;;;;;7.70;5.13;;;6.50;99.90;;;;;;4928228;29;20073;-93
2023/04/02 02:19:55;;;;;;;7.78;5.00;;;6.50;99.90;;;;;;4927982;29;20044;-94
2023/04/02 02:22:31;;;;;;;7.38;5.40;;;6.50;99.90;;;;;;4943895;29;20134;-94
2023/04/02 02:25:16;;;;;;;7.65;5.05;;;6.50;99.90;;;;;;4927919;29;20054;-93
2023/04/02 02:27:53;;;;;;;8.55;5.72;;;6.50;99.90;;;;;;4943050;29;20039;-94
2023/04/02 02:30:44;;;;;;;8.73;5.10;;;6.50;99.90;;;;;;4942600;29;20058;-94
2023/04/02 02:33:36;;;;;;;8.80;6.25;;;6.50;99.90;;;;;;4927497;29;20066;-93
2023/04/02 02:36:23;;;;;;;11.82;7.80;;;6.50;99.90;;;;;;4927404;29;20047;-94
2023/04/02 02:39:02;;;;;;;13.45;9.18;;;6.50;99.90;;;;;;4927020;29;20105;-92
2023/04/02 02:42:02;;;;;;;13.80;8.85;;;6.50;99.90;;;;;;4940765;29;20047;-92
2023/04/02 02:44:40;;;;;;;13.38;9.07;;;6.40;99.90;;;;;;4957695;28;20047;-92
2023/04/02 02:47:18;;;;;;;13.23;9.48;;;6.40;99.90;;;;;;4929204;29;20066;-92
2023/04/02 02:49:51;;;;;;;12.80;8.90;;;6.30;99.90;;;;;;4942867;29;20058;-93
2023/04/02 02:52:27;;;;;;;11.43;7.70;;;6.20;99.90;;;;;;4927235;29;20055;-92
2023/04/02 02:55:12;;;;;;;12.95;7.78;;;6.20;99.90;;;;;;4946262;29;20069;-93
2023/04/02 02:57:55;;;;;;;11.27;7.30;;;6.20;99.90;;;;;;4929055;29;20412;-94
2023/04/02 03:00:26;;;;;;;10.45;7.03;;;6.20;99.90;;;;;;4958482;29;20591;-93
2023/04/02 03:03:03;;;;;;;11.10;7.43;;;6.10;99.90;;;;;;4927181;29;20044;-94
2023/04/02 03:05:31;;;;;;;8.82;6.25;;;6.10;99.90;;;;;;4943326;29;20043;-94
2023/04/02 03:08:12;;;;;;;8.40;6.43;;;6.10;99.90;;;;;;4927865;29;20563;-93
2023/04/02 03:11:07;;;;;;;8.23;5.97;;;6.10;99.90;;;;;;4927391;28;20214;-91
2023/04/02 03:13:37;;;;;;;7.88;5.28;;;6.10;99.90;;;;;;4961422;28;20054;-93
2023/04/02 03:16:25;;;;;;;9.68;6.05;;;6.10;99.90;;;;;;4961356;28;20046;-94
2023/04/02 03:19:30;;;;;;;8.77;5.80;;;6.10;99.90;;;;;;4961104;28;20057;-94
2023/04/02 03:22:17;;;;;;;9.82;5.97;;;6.00;99.90;;;;;;4945317;28;20098;-94
2023/04/02 03:25:00;;;;;;;7.90;4.68;;;6.00;99.90;;;;;;4961113;28;20066;-93
2023/04/02 03:27:38;;;;;;;9.07;5.63;;;6.00;99.90;;;;;;4961308;28;20043;-92
2023/04/02 03:30:44;;;;;;;7.22;4.10;;;6.00;99.90;;;;;;4953169;28;20055;-93
2023/04/02 03:33:15;;;;;;;6.53;4.15;;;6.00;99.90;;;;;;4961316;28;20054;-95
2023/04/02 03:35:55;;;;;;;6.53;3.90;;;6.00;99.90;;;;;;4960996;28;20061;-94
2023/04/02 03:38:40;;;;;;;5.95;3.55;;;6.00;99.90;;;;;;4961244;28;20050;-94
2023/04/02 03:41:21;;;;;;;8.63;4.93;;;6.00;99.90;;;;;;4963005;28;20050;-94
2023/04/02 03:43:56;;;;;;;6.40;4.30;;;6.00;99.90;;;;;;4941678;29;20062;-93
2023/04/02 03:46:33;;;;;;;8.23;6.00;;;6.00;99.90;;;;;;4941259;29;20130;-95
2023/04/02 03:49:10;;;;;;;9.07;5.82;;;5.90;99.90;;;;;;4957572;29;20055;-94
2023/04/02 03:51:51;;;;;;;7.65;5.13;;;5.90;99.90;;;;;;4941040;29;20053;-92
2023/04/02 03:54:20;;;;;;;8.43;5.22;;;5.90;99.90;;;;;;4926371;29;20047;-95
2023/04/02 03:56:52;;;;;;;7.97;4.53;;;5.90;99.90;;;;;;4925031;29;20043;-95
2023/04/02 03:59:42;;;;;;;7.60;4.88;;;5.90;99.90;;;;;;4933091;29;20054;-94
2023/04/02 04:02:33;;;;;;;9.68;6.32;;;5.90;99.90;;;;;;4948391;29;20059;-94
2023/04/02 04:05:07;;;;;;;10.82;7.05;;;5.80;99.90;;;;;;4943204;29;20062;-94
2023/04/02 04:07:40;;;;;;;10.68;6.57;;;5.80;99.90;;;;;;4950576;29;20053;-94
2023/04/02 04:10:18;;;;;;;12.50;6.95;;;5.80;99.90;;;;;;4958828;29;20583;-95
2023/04/02 04:12:50;;;;;;;11.15;7.45;;;5.70;99.90;;;;;;4941735;29;20582;-93
2023/04/02 04:16:02;;;;;;;10.98;6.93;;;5.70;99.90;;;;;;4926512;29;20504;-94
2023/04/02 04:18:46;;;;;;;10.68;6.82;;;5.70;99.90;;;;;;4940800;29;20134;-93
2023/04/02 04:21:35;;;;;;;11.50;6.55;;;5.70;99.90;;;;;;4941471;28;20078;-92
2023/04/02 04:24:38;;;;;;;10.75;7.28;;;5.70;99.90;;;;;;4943153;29;20059;-94
2023/04/02 04:27:22;;;;;;;9.88;6.18;;;5.70;99.90;;;;;;4910409;29;20047;-95
2023/04/02 04:30:17;;;;;;;10.27;5.63;;;5.70;99.90;;;;;;4940406;29;20051;-94
2023/04/02 04:33:33;;;;;;;10.65;5.88;;;5.70;99.80;;;;;;4940107;29;20047;-95
2023/04/02 04:36:18;;;;;;;8.55;4.97;;;5.70;99.80;;;;;;4879996;29;20048;-95
2023/04/02 04:38:54;;;;;;;8.45;5.25;;;5.70;99.90;;;;;;4879540;29;20082;-94
2023/04/02 04:41:31;;;;;;;8.68;5.30;;;5.60;99.80;;;;;;4920914;29;20051;-94
2023/04/02 04:44:16;;;;;;;7.70;5.28;;;5.60;99.80;;;;;;4940657;29;20416;-94
2023/04/02 04:47:01;;;;;;;8.02;4.57;;;5.60;99.70;;;;;;4941170;29;20043;-95
2023/04/02 04:49:52;;;;;;;7.10;3.92;;;5.60;99.70;;;;;;4940883;29;20052;-95
2023/04/02 04:52:29;;;;;;;8.20;5.18;;;5.50;99.70;;;;;;4941871;29;20047;-95
2023/04/02 04:55:00;;;;;;;7.10;4.28;;;5.50;99.60;;;;;;4941389;29;20050;-95
2023/04/02 04:57:33;;;;;;;6.82;4.50;;;5.40;99.60;;;;;;4940479;29;20499;-94
2023/04/02 05:00:21;;;;;;;5.53;3.40;;;5.30;99.50;;;;;;4940400;29;20043;-94
2023/04/02 05:03:08;;;;;;;6.53;4.25;;;5.30;99.50;;;;;;4940597;29;20439;-95
2023/04/02 05:05:39;;;;;;;5.88;3.80;;;5.20;99.30;;;;;;4940777;29;20085;-94
2023/04/02 05:08:18;;;;;;;5.53;3.47;;;5.20;99.30;;;;;;4941480;29;20495;-95
2023/04/02 05:11:04;;;;;;;6.32;3.58;;;5.10;99.20;;;;;;4945546;28;20081;-93
2023/04/02 05:13:46;;;;;;;4.75;2.95;;;5.10;99.00;;;;;;4963198;28;20066;-94
2023/04/02 05:16:22;;;;;;;8.10;3.10;;;5.00;99.00;;;;;;4963487;28;20451;-95
2023/04/02 05:19:07;;;;;;;6.75;3.08;;;4.90;98.90;;;;;;4963343;28;20054;-95
2023/04/02 05:21:54;;;;;;;5.60;2.67;;;4.90;99.00;;;;;;4963395;28;20130;-95
2023/04/02 05:24:47;;;;;;;4.57;2.42;;;4.90;99.00;;;;;;4963246;28;20047;-95
2023/04/02 05:27:32;;;;;;;6.60;2.80;;;4.90;98.90;;;;;;4956037;28;20066;-94
2023/04/02 05:30:09;;;;;;;4.65;2.17;;;4.90;99.00;;;;;;4947635;28;20062;-94
2023/04/02 05:32:44;;;;;;;4.55;1.95;;;4.90;99.00;;;;;;4962684;28;20093;-94
2023/04/02 05:35:22;;;;;;;5.05;2.00;;;4.80;98.90;;;;;;4946822;28;20046;-94
2023/04/02 05:37:52;;;;;;;3.88;2.17;;;4.80;98.80;;;;;;4962700;28;20054;-94
2023/04/02 05:40:28;;;;;;;3.63;1.38;;;4.80;98.90;;;;;;4946865;28;20537;-94
2023/04/02 05:43:06;;;;;;;4.22;2.05;;;4.80;98.90;;;;;;4978791;28;20045;-94
2023/04/02 05:45:41;;;;;;;5.25;2.00;;;4.80;98.90;;;;;;4962717;28;20138;-94
2023/04/02 05:48:24;;;;;;;4.80;1.60;;;4.80;98.80;;;;;;4968026;28;20049;-94
2023/04/02 05:50:53;;;;;;;;;;;4.80;98.80;;;;;;4967315;28;20081;-95
2023/04/02 05:53:37;;;;;;;2.45;1.25;;;4.70;98.80;;;;;;4982763;28;19926;-95
2023/04/02 05:56:22;;;;;;;4.65;1.83;;;4.80;98.90;;;;;;4963171;28;20050;-95
2023/04/02 05:58:58;;;;;;;2.80;1.15;;;4.80;98.70;;;;;;4947057;28;20415;-94
2023/04/02 06:02:06;;;;;;;2.55;1.15;;;4.80;98.70;;;;;;4944130;29;20046;-94
2023/04/02 06:04:46;;;;;;;3.20;1.10;;;4.70;98.80;;;;;;4938453;29;20133;-94
2023/04/02 06:07:32;;;;;;;2.80;1.20;;;4.70;98.90;;;;;;4943719;29;20043;-95
2023/04/02 06:10:02;;;;;;;3.42;1.58;;;4.70;98.50;;;;;;4953273;28;20061;-94
2023/04/02 06:12:35;;;;;;;2.78;1.20;;;4.60;98.20;;;;;;4978572;28;20043;-94
2023/04/02 06:15:11;;;;;;;5.18;1.48;;;4.60;98.30;;;;;;4963045;28;20459;-94
2023/04/02 06:17:51;;;;;;;3.53;1.33;;;4.60;98.30;;;;;;4962531;28;20407;-96
2023/04/02 06:20:20;;;;;;;4.00;1.33;;;4.60;98.30;;;;;;4961359;28;20043;-92
2023/04/02 06:23:02;;;;;;;2.53;1.25;;;4.60;98.30;;;;;;4946345;28;20038;-93
2023/04/02 06:25:38;;;;;;;3.15;1.45;;;4.60;98.00;;;;;;4966800;28;20051;-94
2023/04/02 06:28:23;;;;;;;3.33;2.13;;;4.60;98.00;;;;;;4943270;29;20043;-92
2023/04/02 06:31:00;;;;;;;4.20;1.80;;;4.60;97.90;;;;;;4943423;29;20443;-91
2023/04/02 06:33:33;;;;;;;3.78;1.45;;;4.50;97.90;;;;;;4956135;28;20129;-92
2023/04/02 06:36:05;;;;;;;3.25;1.30;;;4.50;97.80;;;;;;4951975;29;20055;-92
2023/04/02 06:38:37;;;;;;;5.45;1.50;;;4.40;97.80;;;;;;4928113;29;20043;-92
2023/04/02 06:41:29;;;;;;;2.88;1.35;;;4.40;97.80;;;;;;4928209;29;20496;-93
2023/04/02 06:44:20;;;;;;;4.35;1.60;;;4.50;97.80;;;;;;4958564;28;20049;-95
2023/04/02 06:47:10;;;;;;;3.80;1.30;;;4.50;97.70;;;;;;4982121;28;20027;-95
2023/04/02 06:49:54;;;;;;;3.55;1.50;;;4.40;97.70;;;;;;4972123;28;20093;-93
2023/04/02 06:52:36;;;;;;;2.15;1.10;;;4.40;97.70;;;;;;4964127;28;20047;-94
2023/04/02 06:55:39;;;;;;;2.17;1.10;;;4.50;97.70;;;;;;4952857;28;20051;-92
2023/04/02 06:58:10;;;;;;;4.63;1.48;;;4.40;97.40;;;;;;4977084;28;20503;-93
2023/04/02 07:00:46;;;;;;;5.40;1.52;;;4.40;97.50;;;;;;4946085;28;20097;-94
2023/04/02 07:03:25;;;;;;;;;;;4.40;97.40;;;;;;4961993;28;20050;-94
2023/04/02 07:06:12;;;;;;;2.25;0.95;;;4.40;97.40;;;;;;4976857;28;19946;-95
2023/04/02 07:08:39;;;;;;;5.30;1.20;;;4.40;97.40;;;;;;4962843;28;20061;-92
2023/04/02 07:11:13;;;;;;;4.93;1.17;;;4.50;97.40;;;;;;4940746;29;20141;-94
2023/04/02 07:13:40;;;;;;;3.80;1.33;;;4.50;97.20;;;;;;4942892;29;20081;-94
2023/04/02 07:16:14;;;;;;;5.78;1.10;;;4.50;97.20;;;;;;4926652;29;20051;-94
2023/04/02 07:18:45;;;;;;;2.72;1.17;;;4.60;97.10;;;;;;4942485;29;20059;-94
2023/04/02 07:21:12;;;;;;;1.40;0.68;;;4.60;97.00;;;;;;4942703;29;20051;-94
2023/04/02 07:23:48;;;;;;;7.13;1.58;;;4.70;97.00;;;;;;4926749;29;20129;-96
2023/04/02 07:26:26;;;;;;;4.18;1.52;;;4.70;96.80;;;;;;4943681;29;20075;-96
2023/04/02 07:29:09;;;;;;;4.20;1.40;;;4.70;96.70;;;;;;4927328;29;20115;-96
2023/04/02 07:31:38;;;;;;;3.05;1.23;;;4.70;96.70;;;;;;4941502;29;20257;-93
2023/04/02 07:34:08;;;;;;;2.55;1.15;;;4.80;96.80;;;;;;4942151;29;20050;-94
2023/04/02 07:36:40;;;;;;;1.70;0.93;;;4.80;96.80;;;;;;4951997;29;20086;-93
2023/04/02 07:39:11;;;;;;;4.38;2.17;;;5.00;96.80;;;;;;4959709;29;20054;-94
2023/04/02 07:42:00;;;;;;;4.05;2.28;;;5.10;96.70;;;;;;4955406;29;20055;-95
2023/04/02 07:44:29;;;;;;;3.67;1.63;;;5.10;96.50;;;;;;4944609;29;20062;-95
2023/04/02 07:46:56;;;;;;;3.30;1.17;;;5.10;96.60;;;;;;4943383;29;20081;-94
2023/04/02 07:49:26;;;;;;;4.68;1.73;;;5.20;96.60;;;;;;4942821;29;20094;-94
2023/04/02 07:51:56;;;;;;;4.60;1.23;;;5.20;96.40;;;;;;4944776;29;20059;-93
2023/04/02 07:54:26;;;;;;;4.25;1.48;;;5.20;96.40;;;;;;4933178;28;20487;-93
2023/04/02 07:56:55;;;;;;;4.30;1.85;;;5.20;96.30;;;;;;4933330;28;20047;-93
2023/04/02 07:59:30;;;;;;;9.93;5.85;;;5.20;96.30;;;;;;4960810;28;20051;-93
2023/04/02 08:02:01;;;;;;;5.07;2.78;;;5.20;96.00;;;;;;4961536;28;20043;-95
2023/04/02 08:04:28;;;;;;;5.85;3.03;;;5.10;96.00;;;;;;4938928;29;20079;-95
2023/04/02 08:06:56;;;;;;;9.15;4.57;;;5.10;96.00;;;;;;4926849;29;20046;-92
2023/04/02 08:09:25;;;;;;;6.47;2.50;;;5.10;95.90;;;;;;4942358;29;20106;-94
2023/04/02 08:11:52;;;;;;;5.13;2.95;;;5.00;95.80;;;;;;4941809;29;20071;-94
2023/04/02 08:14:19;;;;;;;6.70;3.42;;;5.00;95.80;;;;;;4942124;29;20404;-95
2023/04/02 08:16:52;;;;;;;5.50;3.20;;;5.00;95.80;;;;;;4941767;29;20074;-96
2023/04/02 08:19:20;;;;;;;5.40;2.80;;;5.00;95.80;;;;;;4953781;28;20113;-95
2023/04/02 08:21:50;;;;;;;5.00;2.30;;;5.00;95.80;;;;;;4945355;28;20054;-96
2023/04/02 08:24:20;;;;;;;4.15;2.30;;;5.00;96.00;;;;;;4960972;28;20051;-93
2023/04/02 08:26:49;;;;;;;4.00;2.22;;;5.10;95.70;;;;;;4928960;28;20106;-95
2023/04/02 08:29:16;;;;;;;6.40;2.45;;;5.10;95.70;;;;;;4960766;28;20078;-94
2023/04/02 08:31:43;;;;;;;4.70;2.08;;;5.10;95.60;;;;;;4944447;28;20082;-93
2023/04/02 08:34:11;;;;;;;4.57;1.80;;;5.10;95.50;;;;;;4945768;28;20495;-96
2023/04/02 08:36:44;;;;;;;5.40;1.70;;;5.10;95.50;;;;;;4944266;28;20074;-92
2023/04/02 08:39:12;;;;;;;3.00;1.67;;;5.10;95.40;;;;;;4964343;28;20077;-90
2023/04/02 08:41:55;;;;;;;5.07;1.27;;;5.20;95.80;;;;;;4944009;28;20042;-95
2023/04/02 08:44:49;;;;;;;3.42;1.23;;;5.40;95.30;;;;;;4960461;28;20054;-95
2023/04/02 08:47:35;;;;;;;3.92;1.17;;;5.50;95.30;;;;;;4961813;28;20046;-96
2023/04/02 08:50:32;;;;;;;3.53;1.33;;;5.50;95.20;;;;;;4968279;28;20082;-94
2023/04/02 08:53:13;;;;;;;2.78;1.30;;;5.50;95.00;;;;;;4962489;28;20105;-95
2023/04/02 08:56:07;;;;;;;4.50;1.42;;;5.50;95.10;;;;;;4955295;28;20130;-91
2023/04/02 08:59:01;;;;;;;4.35;1.95;;;5.60;95.10;;;;;;4956711;29;20055;-91
2023/04/02 09:01:55;;;;;;;4.72;1.80;;;5.70;94.90;;;;;;4959719;28;20146;-92
2023/04/02 09:04:26;;;;;;;3.38;1.60;;;5.70;94.80;;;;;;4975118;28;20050;-92
2023/04/02 09:06:56;;;;;;;2.92;1.63;;;5.70;94.80;;;;;;4960004;28;20047;-92
2023/04/02 09:09:25;;;;;;;3.13;1.50;;;5.70;94.80;;;;;;4928618;28;20051;-93
2023/04/02 09:12:00;;;;;;;3.70;1.70;;;5.80;94.80;;;;;;4971009;28;20043;-92
2023/04/02 09:14:33;;;;;;;4.07;1.67;;;6.00;94.80;;;;;;4955967;29;20563;-92
2023/04/02 09:17:02;;;;;;;4.00;1.45;;;6.10;94.40;;;;;;4940676;29;20063;-92
2023/04/02 09:19:43;;;;;;;3.05;1.95;;;6.00;94.30;;;;;;4942229;29;20053;-92
2023/04/02 09:22:22;;;;;;;4.18;2.22;;;6.00;94.10;;;;;;4945726;29;20044;-93
2023/04/02 09:24:59;;;;;;;5.18;2.15;;;6.00;94.00;;;;;;4954866;29;20618;-92
2023/04/02 09:27:30;;;;;;;4.70;2.55;;;6.00;94.00;;;;;;4952321;29;20044;-93
2023/04/02 09:30:03;;;;;;;4.25;2.03;;;6.00;94.10;;;;;;4951361;28;20081;-91
2023/04/02 09:32:42;;;;;;;2.85;1.20;;;6.10;94.10;;;;;;4924878;29;20071;-92
2023/04/02 09:35:17;;;;;;;3.03;1.58;;;6.20;94.10;;;;;;4941205;29;20455;-92
2023/04/02 09:38:26;;;;;;;5.82;1.02;;;6.40;93.90;;;;;;4940295;28;20130;-92
2023/04/02 09:41:00;;;;;;;3.08;1.30;;;6.50;93.80;;;;;;4924630;29;20050;-92
2023/04/02 09:43:34;;;;;;;4.80;1.50;;;6.50;93.40;;;;;;4954259;28;20129;-91
2023/04/02 09:46:20;;;;;;;2.83;1.50;;;6.60;93.40;;;;;;4940207;29;20063;-91
2023/04/02 09:48:54;;;;;;;2.72;0.85;;;6.60;93.30;;;;;;4957182;28;20098;-91
2023/04/02 09:51:41;;;;;;;3.45;1.30;;;6.60;93.40;;;;;;4958586;28;20050;-91
2023/04/02 09:54:14;;;;;;;3.47;1.10;;;6.60;93.00;;;;;;4929597;28;20046;-91
2023/04/02 09:57:22;;;;;;;7.10;1.30;;;6.60;93.10;;;;;;4961894;28;20408;-91
2023/04/02 10:00:31;;;;;;;4.13;1.40;;;6.60;92.80;;;;;;4931586;28;20462;-83
2023/04/02 10:03:20;;;;;;;4.00;1.40;;;6.60;92.90;;;;;;4927787;29;20103;-92
2023/04/02 10:06:07;;;;;;;2.72;1.23;;;6.50;92.70;;;;;;4962818;28;20042;-92
2023/04/02 10:08:41;;;;;;;2.65;1.10;;;6.50;92.80;;;;;;4978325;28;20109;-92
2023/04/02 10:11:17;;;;;;;1.80;0.73;;;6.40;92.70;;;;;;4961116;28;20047;-92
2023/04/02 10:14:02;;;;;;;2.22;1.15;;;6.40;92.80;;;;;;4951589;28;20051;-92
2023/04/02 10:16:52;;;;;;;2.40;1.20;;;6.40;93.00;;;;;;4962364;28;20074;-92
2023/04/02 10:19:28;;;;;;;2.30;1.00;;;6.40;92.40;;;;;;4945005;29;20510;-92
2023/04/02 10:21:56;;;;;;;1.70;0.80;;;6.50;92.50;;;;;;4958573;29;20067;-92
2023/04/02 10:24:27;;;;;;;1.60;0.90;;;6.60;92.30;;;;;;4962363;28;20058;-92
2023/04/02 10:27:28;;;;;;;2.33;0.85;;;6.80;92.10;;;;;;4975256;28;20038;-92
2023/04/02 10:30:02;;;;;;;1.60;0.68;;;7.30;91.60;;;;;;4977947;28;20066;-93
2023/04/02 10:33:04;;;;;;;1.95;0.77;;;7.90;91.00;;;;;;4974032;28;20142;-92
2023/04/02 10:35:50;;;;;;;1.58;0.60;;;8.40;90.10;;;;;;4956790;28;20057;-93
2023/04/02 10:38:34;;;;;;;1.58;0.90;;;8.70;89.80;;;;;;4977750;28;20054;-94
2023/04/02 10:41:25;;;;;;;1.20;0.50;;;8.70;89.10;;;;;;4962226;28;20118;-94
2023/04/02 10:43:58;;;;;;;2.30;1.02;;;9.00;89.50;;;;;;4955348;28;20046;-93
2023/04/02 10:46:54;;;;;;;1.90;0.80;;;9.00;89.60;;;;;;4983481;28;20031;-92
2023/04/02 10:49:37;;;;;;;2.47;1.23;;;8.80;89.40;;;;;;4984635;28;20057;-93
2023/04/02 10:52:12;;;;;;;2.78;1.27;;;8.60;89.90;;;;;;4981358;28;20117;-92
2023/04/02 10:54:42;;;;;;;3.65;1.17;;;8.40;90.30;;;;;;4965130;28;20074;-93
2023/04/02 10:57:42;;;;;;;3.20;1.30;;;8.70;90.20;;;;;;4958609;28;20096;-83
2023/04/02 11:00:15;;;;;;;3.08;1.58;;;8.70;89.50;;;;;;4958706;28;20461;-82
2023/04/02 11:03:01;;;;;;;3.28;1.08;;;8.60;89.60;;;;;;4960786;28;20105;-83
2023/04/02 11:05:46;;;;;;;2.05;0.70;;;8.70;89.30;;;;;;4952642;28;20058;-80
2023/04/02 11:08:30;;;;;;;2.42;0.98;;;8.80;89.20;;;;;;4954193;28;20130;-81
2023/04/02 11:11:06;;;;;;;3.20;0.70;;;8.70;88.90;;;;;;4958593;28;20042;-80
2023/04/02 11:13:48;;;;;;;3.80;0.93;;;8.40;89.20;;;;;;4961010;28;20055;-82
2023/04/02 11:16:16;;;;;;;1.65;0.40;;;8.10;89.00;;;;;;4960018;28;20398;-81
2023/04/02 11:19:15;;;;;;;3.33;0.88;;;7.90;90.10;;;;;;4930409;28;20129;-81
2023/04/02 11:21:42;;;;;;;3.55;1.08;;;7.80;90.30;;;;;;4960929;28;20071;-81
2023/04/02 11:24:24;;;;;;;2.23;0.60;;;7.80;90.40;;;;;;4962316;28;20074;-81
2023/04/02 11:27:26;;;;;;;1.77;0.80;;;7.80;90.40;;;;;;4936983;29;20734;-83
2023/04/02 11:30:25;;;;;;;1.67;0.70;;;7.80;90.30;;;;;;4937062;28;20066;-83
2023/04/02 11:32:53;;;;;;;1.60;0.77;;;7.70;90.20;;;;;;4941658;28;20407;-90
2023/04/02 11:35:31;;;;;;;2.45;0.73;;;7.70;90.10;;;;;;4944478;28;20554;-78
2023/04/02 11:38:09;;;;;;;4.10;0.82;;;7.80;90.20;;;;;;4945678;29;20050;-81
2023/04/02 11:40:40;;;;;;;4.38;0.75;;;7.70;90.20;;;;;;4973950;28;20495;-82
2023/04/02 11:43:32;;;;;;;3.05;0.90;;;7.70;90.10;;;;;;4941855;28;20043;-81
2023/04/02 11:46:15;;;;;;;2.00;0.63;;;7.70;90.00;;;;;;4961735;28;20054;-85
2023/04/02 11:48:45;;;;;;;1.77;0.52;;;7.70;89.60;;;;;;4952925;28;20051;-80
2023/04/02 11:51:21;;;;;;;1.50;0.63;;;7.60;90.00;;;;;;4914959;29;20063;-79
2023/04/02 11:53:50;;;;;;;2.00;1.27;;;7.70;89.80;;;;;;4935045;28;20510;-78
2023/04/02 11:56:37;;;;;;;1.88;0.80;;;7.70;89.50;;;;;;4932823;29;20043;-79
2023/04/02 11:59:29;;;;;;;2.47;0.93;;;7.70;89.30;;;;;;4946881;28;20062;-78
2023/04/02 12:01:59;;;;;;;4.32;1.05;;;7.70;89.20;;;;;;4944593;29;20035;-78
2023/04/02 12:04:36;;;;;;;2.08;0.95;;;7.70;89.00;;;;;;4944003;28;20050;-78
2023/04/02 12:07:26;;;;;;;2.53;0.70;;;7.80;89.10;;;;;;4957398;28;20051;-77
2023/04/02 12:09:56;;;;;;;2.63;0.70;;;7.80;89.40;;;;;;4966945;28;20036;-77
2023/04/02 12:12:30;;;;;;;1.45;0.73;;;7.90;89.30;;;;;;4944399;29;20055;-78
2023/04/02 12:14:59;;;;;;;1.63;0.60;;;8.00;89.20;;;;;;4951710;29;20102;-78
2023/04/02 12:17:38;;;;;;;1.20;0.60;;;8.00;89.10;;;;;;4932495;28;20050;-78
2023/04/02 12:20:08;;;;;;;1.85;0.75;;;8.00;89.00;;;;;;4943584;28;20050;-78
2023/04/02 12:22:44;;;;;;;1.27;0.50;;;8.10;89.30;;;;;;4962112;28;20090;-78
2023/04/02 12:25:25;;;;;;;3.17;1.00;;;8.10;88.70;;;;;;4951242;29;20047;-80
2023/04/02 12:28:09;;;;;;;3.20;0.70;;;8.10;88.30;;;;;;4950449;28;20086;-80
2023/04/02 12:30:37;;;;;;;3.78;0.88;;;8.10;88.10;;;;;;4960695;28;20151;-80
2023/04/02 12:33:23;;;;;;;1.70;0.70;;;8.10;88.10;;;;;;4912233;29;20055;-80
2023/04/02 12:38:53;;;;;;;1.88;0.60;;;8.10;87.80;;;;;;4946113;28;20059;-86
2023/04/02 12:41:23;;;;;;;1.70;0.60;;;8.10;87.70;;;;;;4946014;29;20163;-80
2023/04/02 12:44:02;;;;;;;1.95;0.50;;;8.20;87.70;;;;;;4951318;29;20050;-81
2023/04/02 12:46:30;;;;;;;2.65;0.63;;;8.20;87.70;;;;;;4949267;28;20047;-80
2023/04/02 12:49:05;;;;;;;4.28;0.70;;;8.20;87.50;;;;;;4955620;28;20067;-80
2023/04/02 12:51:36;;;;;;;4.35;0.50;;;8.20;87.60;;;;;;4956570;28;20082;-82
2023/04/02 12:54:04;;;;;;;2.85;0.60;;;8.20;87.60;;;;;;4908490;29;20075;-80
2023/04/02 12:56:31;;;;;;;2.60;0.52;;;8.30;87.10;;;;;;4953482;29;20138;-80
2023/04/02 12:59:00;;;;;;;1.38;0.82;;;8.30;87.00;;;;;;4923574;28;20130;-79
2023/04/02 13:01:30;;;;;;;2.33;0.40;;;8.20;87.00;;;;;;4930895;28;20043;-82
2023/04/02 13:04:05;;;;;;;1.58;0.50;;;8.20;87.30;;;;;;4950883;28;20046;-83
2023/04/02 13:06:35;;;;;;;1.30;0.30;;;8.30;87.00;;;;;;4946860;28;20480;-82
2023/04/02 13:09:05;;;;;;;2.53;0.47;;;8.30;87.00;;;;;;4941732;29;20048;-81
2023/04/02 13:11:40;;;;;;;1.60;0.60;;;8.40;86.80;;;;;;4925366;29;20440;-82
2023/04/02 13:14:16;;;;;;;1.77;0.50;;;8.50;86.50;;;;;;4948644;28;20047;-83
2023/04/02 13:16:43;;;;;;;2.47;0.95;;;8.40;86.40;;;;;;4940787;29;20043;-83
2023/04/02 13:19:16;;;;;;;1.40;0.57;;;8.40;86.60;;;;;;4940059;28;20042;-83
2023/04/02 13:21:45;;;;;;;1.85;0.50;;;8.50;86.50;;;;;;4956566;28;20038;-83
2023/04/02 13:24:20;;;;;;;1.58;0.60;;;8.50;86.20;;;;;;4961141;28;20047;-83
2023/04/02 13:26:58;;;;;;;1.52;0.50;;;8.60;86.20;;;;;;4955419;28;20066;-82
2023/04/02 13:29:35;;;;;;;1.90;0.68;;;8.50;85.90;;;;;;4965724;28;20129;-85
2023/04/02 13:32:14;;;;;;;1.70;0.70;;;8.50;84.90;;;;;;4940995;29;20102;-82
2023/04/02 13:34:44;;;;;;;1.33;0.38;;;8.50;85.20;;;;;;4939373;28;20043;-84
2023/04/02 13:37:19;;;;;;;1.33;0.60;;;8.40;85.30;;;;;;4948591;28;20054;-86
2023/04/02 13:39:46;;;;;;;1.23;0.57;;;8.50;85.10;;;;;;4947812;29;20075;-85
2023/04/02 13:42:31;;;;;;;1.70;0.50;;;8.50;85.30;;;;;;4946800;28;20043;-86
2023/04/02 13:59:47;;;;;;;1.55;0.50;;;8.60;84.40;;;;;;4880488;29;20036;-86
2023/04/02 14:02:36;;;;;;;1.60;0.55;;;8.60;84.40;;;;;;4878629;29;20076;-86
2023/04/02 14:05:24;;;;;;;1.50;0.52;;;8.60;84.10;;;;;;4849135;29;20220;-85
2023/04/02 14:08:43;;;;;;;2.35;0.52;;;8.70;84.20;;;;;;4868749;29;20514;-85
2023/04/02 14:11:20;;;;;;;1.92;0.60;;;8.70;83.50;;;;;;4880703;29;20057;-86
2023/04/02 14:14:20;;;;;;;1.83;0.60;;;8.70;83.70;;;;;;4882431;29;20060;-85
2023/04/02 14:17:11;;;;;;;2.92;0.40;;;8.80;83.00;;;;;;4934624;29;20055;-85